sensor_id;sensor_type;location;lat;lon;timestamp;pressure;altitude;pressure_sealevel;temperature;humidity
43071;BME280;36278;47.952;21.714;2023-02-03T00:02:05;100717.81;;;2.70;69.41
43071;BME280;36278;47.952;21.714;2023-02-03T00:04:30;100736.78;;;2.75;67.92
43071;BME280;36278;47.952;21.714;2023-02-03T00:06:56;100723.31;;;2.62;68.24
43071;BME280;36278;47.952;21.714;2023-02-03T00:09:21;100725.09;;;2.60;67.94
43071;BME280;36278;47.952;21.714;2023-02-03T00:11:47;100732.84;;;2.63;67.41
43071;BME280;36278;47.952;21.714;2023-02-03T00:14:12;100736.38;;;2.62;67.03
43071;BME280;36278;47.952;21.714;2023-02-03T00:16:38;100743.97;;;2.70;66.44
43071;BME280;36278;47.952;21.714;2023-02-03T00:19:03;100744.88;;;2.69;66.24
43071;BME280;36278;47.952;21.714;2023-02-03T00:21:28;100746.59;;;2.68;65.60
43071;BME280;36278;47.952;21.714;2023-02-03T00:23:54;100760.56;;;2.69;66.30
43071;BME280;36278;47.952;21.714;2023-02-03T00:26:20;100761.50;;;2.66;65.68
43071;BME280;36278;47.952;21.714;2023-02-03T00:28:45;100773.53;;;2.72;64.85
43071;BME280;36278;47.952;21.714;2023-02-03T00:31:20;100772.66;;;2.71;65.00
43071;BME280;36278;47.952;21.714;2023-02-03T00:33:46;100769.41;;;2.65;66.14
43071;BME280;36278;47.952;21.714;2023-02-03T00:36:12;100769.34;;;2.66;65.01
43071;BME280;36278;47.952;21.714;2023-02-03T00:38:38;100762.53;;;2.62;65.51
43071;BME280;36278;47.952;21.714;2023-02-03T00:41:05;100778.09;;;2.65;64.97
43071;BME280;36278;47.952;21.714;2023-02-03T00:43:30;100782.63;;;2.60;64.92
43071;BME280;36278;47.952;21.714;2023-02-03T00:45:56;100782.63;;;2.60;65.38
43071;BME280;36278;47.952;21.714;2023-02-03T00:48:21;100784.59;;;2.55;64.96
43071;BME280;36278;47.952;21.714;2023-02-03T00:50:46;100788.84;;;2.58;65.48
43071;BME280;36278;47.952;21.714;2023-02-03T00:53:12;100788.06;;;2.56;65.17
43071;BME280;36278;47.952;21.714;2023-02-03T00:55:38;100797.75;;;2.52;64.47
43071;BME280;36278;47.952;21.714;2023-02-03T00:58:03;100801.19;;;2.54;64.07
43071;BME280;36278;47.952;21.714;2023-02-03T01:00:29;100807.16;;;2.58;63.25
43071;BME280;36278;47.952;21.714;2023-02-03T01:02:54;100800.94;;;2.60;64.13
43071;BME280;36278;47.952;21.714;2023-02-03T01:05:19;100807.09;;;2.59;63.88
43071;BME280;36278;47.952;21.714;2023-02-03T01:07:45;100818.31;;;2.63;64.79
43071;BME280;36278;47.952;21.714;2023-02-03T01:10:10;100812.06;;;2.67;63.75
43071;BME280;36278;47.952;21.714;2023-02-03T01:12:36;100814.72;;;2.65;64.38
43071;BME280;36278;47.952;21.714;2023-02-03T01:15:01;100825.97;;;2.69;64.85
43071;BME280;36278;47.952;21.714;2023-02-03T01:17:27;100822.38;;;2.71;64.52
43071;BME280;36278;47.952;21.714;2023-02-03T01:19:52;100820.59;;;2.72;65.47
43071;BME280;36278;47.952;21.714;2023-02-03T01:22:18;100820.53;;;2.73;64.52
43071;BME280;36278;47.952;21.714;2023-02-03T01:24:44;100828.38;;;2.73;65.19
43071;BME280;36278;47.952;21.714;2023-02-03T01:27:09;100826.09;;;2.64;65.27
43071;BME280;36278;47.952;21.714;2023-02-03T01:29:35;100834.06;;;2.61;65.35
43071;BME280;36278;47.952;21.714;2023-02-03T01:32:00;100834.28;;;2.55;66.83
43071;BME280;36278;47.952;21.714;2023-02-03T01:34:26;100829.31;;;2.47;67.25
43071;BME280;36278;47.952;21.714;2023-02-03T01:36:51;100835.31;;;2.49;66.44
43071;BME280;36278;47.952;21.714;2023-02-03T01:39:16;100833.75;;;2.44;67.20
43071;BME280;36278;47.952;21.714;2023-02-03T01:41:42;100820.97;;;2.36;68.30
43071;BME280;36278;47.952;21.714;2023-02-03T01:44:46;100834.19;;;2.32;68.79
43071;BME280;36278;47.952;21.714;2023-02-03T01:47:34;100840.41;;;2.28;68.53
43071;BME280;36278;47.952;21.714;2023-02-03T01:52:41;100838.94;;;2.20;70.07
43071;BME280;36278;47.952;21.714;2023-02-03T01:55:10;100833.78;;;2.17;69.94
43071;BME280;36278;47.952;21.714;2023-02-03T01:57:41;100830.38;;;2.15;70.46
43071;BME280;36278;47.952;21.714;2023-02-03T02:00:10;100828.00;;;2.08;70.76
43071;BME280;36278;47.952;21.714;2023-02-03T02:02:35;100827.91;;;2.11;71.52
43071;BME280;36278;47.952;21.714;2023-02-03T02:05:14;100835.06;;;2.06;71.16
43071;BME280;36278;47.952;21.714;2023-02-03T02:07:41;100839.56;;;2.01;72.03
43071;BME280;36278;47.952;21.714;2023-02-03T02:10:08;100845.81;;;1.96;72.41
43071;BME280;36278;47.952;21.714;2023-02-03T02:12:33;100829.28;;;1.96;72.59
43071;BME280;36278;47.952;21.714;2023-02-03T02:14:59;100822.41;;;1.92;72.74
43071;BME280;36278;47.952;21.714;2023-02-03T02:34:11;100827.19;;;1.79;73.37
43071;BME280;36278;47.952;21.714;2023-02-03T02:36:43;100845.13;;;1.90;72.33
43071;BME280;36278;47.952;21.714;2023-02-03T02:41:50;100851.34;;;1.86;72.67
43071;BME280;36278;47.952;21.714;2023-02-03T02:44:24;100861.00;;;1.84;72.29
43071;BME280;36278;47.952;21.714;2023-02-03T02:46:57;100865.41;;;1.82;72.69
43071;BME280;36278;47.952;21.714;2023-02-03T02:49:30;100868.88;;;1.82;72.48
43071;BME280;36278;47.952;21.714;2023-02-03T02:51:59;100863.25;;;1.94;72.33
43071;BME280;36278;47.952;21.714;2023-02-03T02:54:27;100873.72;;;1.94;71.92
43071;BME280;36278;47.952;21.714;2023-02-03T02:56:55;100882.78;;;1.83;73.00
43071;BME280;36278;47.952;21.714;2023-02-03T02:59:23;100873.53;;;1.73;73.05
43071;BME280;36278;47.952;21.714;2023-02-03T03:01:49;100893.81;;;1.64;73.88
43071;BME280;36278;47.952;21.714;2023-02-03T03:04:17;100886.47;;;1.48;74.89
43071;BME280;36278;47.952;21.714;2023-02-03T03:09:27;100880.69;;;1.36;75.67
43071;BME280;36278;47.952;21.714;2023-02-03T03:12:09;100881.63;;;1.34;75.65
43071;BME280;36278;47.952;21.714;2023-02-03T03:14:39;100883.63;;;1.26;75.63
43071;BME280;36278;47.952;21.714;2023-02-03T03:17:07;100885.59;;;1.18;76.08
43071;BME280;36278;47.952;21.714;2023-02-03T03:19:38;100896.03;;;1.18;75.66
43071;BME280;36278;47.952;21.714;2023-02-03T03:22:08;100891.59;;;1.20;75.12
43071;BME280;36278;47.952;21.714;2023-02-03T03:24:44;100881.97;;;1.22;74.02
43071;BME280;36278;47.952;21.714;2023-02-03T03:27:19;100895.84;;;1.24;73.88
43071;BME280;36278;47.952;21.714;2023-02-03T03:30:16;100902.63;;;1.29;73.81
43071;BME280;36278;47.952;21.714;2023-02-03T03:32:42;100909.72;;;1.26;73.44
43071;BME280;36278;47.952;21.714;2023-02-03T03:35:09;100907.00;;;1.29;72.61
43071;BME280;36278;47.952;21.714;2023-02-03T03:37:37;100907.84;;;1.29;73.27
43071;BME280;36278;47.952;21.714;2023-02-03T03:40:12;100902.84;;;1.23;73.50
43071;BME280;36278;47.952;21.714;2023-02-03T03:42:58;100893.88;;;1.32;72.83
43071;BME280;36278;47.952;21.714;2023-02-03T03:45:33;100890.59;;;1.25;72.40
43071;BME280;36278;47.952;21.714;2023-02-03T03:48:08;100887.19;;;1.22;73.17
43071;BME280;36278;47.952;21.714;2023-02-03T03:50:40;100890.03;;;1.14;72.86
43071;BME280;36278;47.952;21.714;2023-02-03T03:53:09;100886.66;;;1.10;73.25
43071;BME280;36278;47.952;21.714;2023-02-03T03:55:37;100888.44;;;1.08;72.51
43071;BME280;36278;47.952;21.714;2023-02-03T03:58:12;100891.00;;;1.10;72.61
43071;BME280;36278;47.952;21.714;2023-02-03T04:00:40;100885.03;;;1.06;72.70
43071;BME280;36278;47.952;21.714;2023-02-03T04:03:16;100903.28;;;1.06;72.85
43071;BME280;36278;47.952;21.714;2023-02-03T04:05:43;100900.72;;;1.05;73.01
43071;BME280;36278;47.952;21.714;2023-02-03T04:08:09;100901.56;;;1.05;72.77
43071;BME280;36278;47.952;21.714;2023-02-03T04:10:37;100913.69;;;1.08;72.84
43071;BME280;36278;47.952;21.714;2023-02-03T04:13:04;100908.50;;;1.06;72.84
43071;BME280;36278;47.952;21.714;2023-02-03T04:15:30;100902.66;;;0.98;73.35
43071;BME280;36278;47.952;21.714;2023-02-03T04:17:56;100903.63;;;0.94;73.79
43071;BME280;36278;47.952;21.714;2023-02-03T04:20:24;100907.22;;;0.90;74.72
43071;BME280;36278;47.952;21.714;2023-02-03T04:22:50;100886.75;;;0.75;74.98
43071;BME280;36278;47.952;21.714;2023-02-03T04:25:15;100901.41;;;0.79;74.53
43071;BME280;36278;47.952;21.714;2023-02-03T04:27:41;100914.34;;;0.83;74.93
43071;BME280;36278;47.952;21.714;2023-02-03T04:30:07;100903.91;;;0.83;74.26
43071;BME280;36278;47.952;21.714;2023-02-03T04:32:33;100912.59;;;0.84;73.84
43071;BME280;36278;47.952;21.714;2023-02-03T04:35:00;100911.78;;;0.82;74.26
43071;BME280;36278;47.952;21.714;2023-02-03T04:37:26;100896.94;;;0.84;74.20
43071;BME280;36278;47.952;21.714;2023-02-03T04:39:53;100896.00;;;0.87;74.05
43071;BME280;36278;47.952;21.714;2023-02-03T04:42:20;100889.97;;;0.84;74.17
43071;BME280;36278;47.952;21.714;2023-02-03T04:44:45;100889.09;;;0.84;74.62
43071;BME280;36278;47.952;21.714;2023-02-03T04:47:11;100895.28;;;0.81;73.96
43071;BME280;36278;47.952;21.714;2023-02-03T04:49:37;100890.88;;;0.83;74.71
43071;BME280;36278;47.952;21.714;2023-02-03T04:52:02;100898.84;;;0.77;74.57
43071;BME280;36278;47.952;21.714;2023-02-03T04:54:28;100909.13;;;0.83;75.06
43071;BME280;36278;47.952;21.714;2023-02-03T04:56:53;100904.72;;;0.86;75.01
43071;BME280;36278;47.952;21.714;2023-02-03T04:59:19;100914.34;;;0.83;74.50
43071;BME280;36278;47.952;21.714;2023-02-03T05:01:44;100929.66;;;0.96;73.22
43071;BME280;36278;47.952;21.714;2023-02-03T05:04:10;100931.16;;;1.04;72.94
43071;BME280;36278;47.952;21.714;2023-02-03T05:06:35;100931.19;;;1.03;73.56
43071;BME280;36278;47.952;21.714;2023-02-03T05:09:01;100942.53;;;1.02;73.87
43071;BME280;36278;47.952;21.714;2023-02-03T05:11:27;100947.75;;;1.02;73.60
43071;BME280;36278;47.952;21.714;2023-02-03T05:13:53;100942.75;;;0.94;75.22
43071;BME280;36278;47.952;21.714;2023-02-03T05:16:18;100940.28;;;0.88;75.52
43071;BME280;36278;47.952;21.714;2023-02-03T05:18:44;100944.88;;;0.78;74.98
43071;BME280;36278;47.952;21.714;2023-02-03T05:21:10;100944.16;;;0.72;75.90
43071;BME280;36278;47.952;21.714;2023-02-03T05:23:35;100946.06;;;0.67;76.15
43071;BME280;36278;47.952;21.714;2023-02-03T05:26:01;100945.22;;;0.65;76.09
43071;BME280;36278;47.952;21.714;2023-02-03T05:28:26;100945.59;;;0.51;76.52
43071;BME280;36278;47.952;21.714;2023-02-03T05:30:52;100944.72;;;0.50;76.22
43071;BME280;36278;47.952;21.714;2023-02-03T05:33:17;100951.53;;;0.56;77.48
43071;BME280;36278;47.952;21.714;2023-02-03T05:35:43;100942.13;;;0.50;77.79
43071;BME280;36278;47.952;21.714;2023-02-03T05:38:08;100938.03;;;0.39;78.54
43071;BME280;36278;47.952;21.714;2023-02-03T05:40:34;100947.66;;;0.37;78.33
43071;BME280;36278;47.952;21.714;2023-02-03T05:43:18;100960.84;;;0.29;78.38
43071;BME280;36278;47.952;21.714;2023-02-03T05:45:44;100952.19;;;0.28;78.35
43071;BME280;36278;47.952;21.714;2023-02-03T05:48:09;100957.47;;;0.25;78.07
43071;BME280;36278;47.952;21.714;2023-02-03T05:50:35;100950.66;;;0.20;79.22
43071;BME280;36278;47.952;21.714;2023-02-03T05:53:02;100961.97;;;0.19;79.50
43071;BME280;36278;47.952;21.714;2023-02-03T05:55:30;100958.56;;;0.15;79.10
43071;BME280;36278;47.952;21.714;2023-02-03T05:57:56;100958.72;;;0.08;79.57
43071;BME280;36278;47.952;21.714;2023-02-03T06:00:22;100959.63;;;0.07;81.23
43071;BME280;36278;47.952;21.714;2023-02-03T06:02:53;100961.00;;;0.23;78.44
43071;BME280;36278;47.952;21.714;2023-02-03T06:05:19;100964.06;;;0.40;77.42
43071;BME280;36278;47.952;21.714;2023-02-03T06:07:45;100964.63;;;0.53;76.79
43071;BME280;36278;47.952;21.714;2023-02-03T06:10:10;100982.59;;;0.65;76.38
43071;BME280;36278;47.952;21.714;2023-02-03T06:12:39;100964.38;;;0.64;75.06
43071;BME280;36278;47.952;21.714;2023-02-03T06:15:04;100987.31;;;0.85;74.60
43071;BME280;36278;47.952;21.714;2023-02-03T06:17:30;101001.13;;;0.89;73.34
43071;BME280;36278;47.952;21.714;2023-02-03T06:19:56;100982.75;;;0.93;72.83
43071;BME280;36278;47.952;21.714;2023-02-03T06:22:22;100995.72;;;0.96;73.40
43071;BME280;36278;47.952;21.714;2023-02-03T06:24:48;100991.34;;;0.97;73.40
43071;BME280;36278;47.952;21.714;2023-02-03T06:27:14;100988.69;;;1.00;73.33
43071;BME280;36278;47.952;21.714;2023-02-03T06:29:40;100981.81;;;0.96;74.57
43071;BME280;36278;47.952;21.714;2023-02-03T06:32:06;100986.84;;;1.03;73.37
43071;BME280;36278;47.952;21.714;2023-02-03T06:38:19;100976.97;;;1.16;74.02
43071;BME280;36278;47.952;21.714;2023-02-03T06:40:48;100981.97;;;1.24;73.65
43071;BME280;36278;47.952;21.714;2023-02-03T06:43:14;100987.06;;;1.28;73.25
43071;BME280;36278;47.952;21.714;2023-02-03T06:45:40;100985.94;;;1.37;72.40
43071;BME280;36278;47.952;21.714;2023-02-03T06:48:05;100991.06;;;1.42;72.40
43071;BME280;36278;47.952;21.714;2023-02-03T06:50:32;100996.31;;;1.40;72.78
43071;BME280;36278;47.952;21.714;2023-02-03T06:52:58;100999.69;;;1.44;72.04
43071;BME280;36278;47.952;21.714;2023-02-03T06:55:24;101001.56;;;1.40;73.01
43071;BME280;36278;47.952;21.714;2023-02-03T06:57:49;101012.00;;;1.40;72.76
43071;BME280;36278;47.952;21.714;2023-02-03T07:00:17;100999.84;;;1.37;72.78
43071;BME280;36278;47.952;21.714;2023-02-03T07:02:42;100992.88;;;1.39;73.14
43071;BME280;36278;47.952;21.714;2023-02-03T07:05:08;100996.22;;;1.43;73.02
43071;BME280;36278;47.952;21.714;2023-02-03T07:07:34;101002.25;;;1.47;72.43
43071;BME280;36278;47.952;21.714;2023-02-03T07:10:00;100988.31;;;1.46;72.25
43071;BME280;36278;47.952;21.714;2023-02-03T07:12:26;100985.38;;;1.58;71.86
43071;BME280;36278;47.952;21.714;2023-02-03T07:14:52;100977.91;;;1.76;70.63
43071;BME280;36278;47.952;21.714;2023-02-03T07:17:17;100988.09;;;1.85;70.98
43071;BME280;36278;47.952;21.714;2023-02-03T07:19:43;100985.88;;;2.01;69.89
43071;BME280;36278;47.952;21.714;2023-02-03T07:22:09;100977.75;;;2.10;70.21
43071;BME280;36278;47.952;21.714;2023-02-03T07:24:35;100965.19;;;2.22;68.23
43071;BME280;36278;47.952;21.714;2023-02-03T07:27:00;100968.84;;;2.45;67.85
43071;BME280;36278;47.952;21.714;2023-02-03T07:29:26;100964.88;;;2.60;67.80
43071;BME280;36278;47.952;21.714;2023-02-03T07:31:51;100946.16;;;2.72;68.29
43071;BME280;36278;47.952;21.714;2023-02-03T07:34:17;100950.25;;;2.80;68.20
43071;BME280;36278;47.952;21.714;2023-02-03T07:36:42;100951.50;;;2.95;67.77
43071;BME280;36278;47.952;21.714;2023-02-03T07:39:07;100948.69;;;3.00;65.62
43071;BME280;36278;47.952;21.714;2023-02-03T07:41:33;100948.09;;;3.17;65.85
43071;BME280;36278;47.952;21.714;2023-02-03T07:43:59;100944.22;;;3.28;65.53
43071;BME280;36278;47.952;21.714;2023-02-03T07:46:24;100944.94;;;3.32;65.16
43071;BME280;36278;47.952;21.714;2023-02-03T07:48:49;100939.28;;;3.44;63.83
43071;BME280;36278;47.952;21.714;2023-02-03T07:51:15;100939.00;;;3.52;62.88
43071;BME280;36278;47.952;21.714;2023-02-03T07:53:40;100930.06;;;3.57;63.02
43071;BME280;36278;47.952;21.714;2023-02-03T07:56:06;100931.09;;;3.53;63.17
43071;BME280;36278;47.952;21.714;2023-02-03T07:58:32;100938.19;;;3.50;63.97
43071;BME280;36278;47.952;21.714;2023-02-03T08:00:58;100934.28;;;3.61;63.30
43071;BME280;36278;47.952;21.714;2023-02-03T08:03:24;100925.78;;;3.78;63.89
43071;BME280;36278;47.952;21.714;2023-02-03T08:05:49;100933.69;;;4.00;62.00
43071;BME280;36278;47.952;21.714;2023-02-03T08:08:16;100930.50;;;4.14;60.46
43071;BME280;36278;47.952;21.714;2023-02-03T08:10:41;100930.34;;;4.18;61.50
43071;BME280;36278;47.952;21.714;2023-02-03T08:13:07;100938.94;;;4.22;60.36
43071;BME280;36278;47.952;21.714;2023-02-03T08:15:32;100937.69;;;4.32;60.51
43071;BME280;36278;47.952;21.714;2023-02-03T08:17:58;100933.75;;;4.42;60.06
43071;BME280;36278;47.952;21.714;2023-02-03T08:20:23;100938.09;;;4.43;60.30
43071;BME280;36278;47.952;21.714;2023-02-03T08:22:49;100933.22;;;4.56;60.15
43071;BME280;36278;47.952;21.714;2023-02-03T08:25:14;100937.47;;;4.59;60.19
43071;BME280;36278;47.952;21.714;2023-02-03T08:27:40;100934.22;;;4.74;59.57
43071;BME280;36278;47.952;21.714;2023-02-03T08:30:08;100943.41;;;4.84;59.38
43071;BME280;36278;47.952;21.714;2023-02-03T08:32:34;100931.13;;;4.85;60.27
43071;BME280;36278;47.952;21.714;2023-02-03T08:35:00;100935.47;;;4.86;61.06
43071;BME280;36278;47.952;21.714;2023-02-03T08:37:25;100948.13;;;4.96;61.07
43071;BME280;36278;47.952;21.714;2023-02-03T08:39:52;100947.28;;;4.96;60.85
43071;BME280;36278;47.952;21.714;2023-02-03T08:42:18;100955.16;;;4.96;61.10
43071;BME280;36278;47.952;21.714;2023-02-03T08:44:44;100958.13;;;5.09;60.22
43071;BME280;36278;47.952;21.714;2023-02-03T08:47:10;100958.75;;;4.93;60.02
43071;BME280;36278;47.952;21.714;2023-02-03T08:49:36;100954.44;;;4.92;60.89
43071;BME280;36278;47.952;21.714;2023-02-03T08:52:05;100961.06;;;5.01;60.30
43071;BME280;36278;47.952;21.714;2023-02-03T08:54:31;100962.44;;;4.89;60.67
43071;BME280;36278;47.952;21.714;2023-02-03T08:56:57;100965.63;;;4.75;61.66
43071;BME280;36278;47.952;21.714;2023-02-03T08:59:23;100967.94;;;4.83;61.42
43071;BME280;36278;47.952;21.714;2023-02-03T09:01:49;100971.28;;;4.87;61.77
43071;BME280;36278;47.952;21.714;2023-02-03T09:04:16;100968.56;;;4.90;61.12
43071;BME280;36278;47.952;21.714;2023-02-03T09:06:44;100961.38;;;4.73;61.55
43071;BME280;36278;47.952;21.714;2023-02-03T09:09:12;100983.56;;;4.86;61.19
43071;BME280;36278;47.952;21.714;2023-02-03T09:11:39;100986.63;;;4.97;61.15
43071;BME280;36278;47.952;21.714;2023-02-03T09:14:05;100988.09;;;5.03;60.67
43071;BME280;36278;47.952;21.714;2023-02-03T09:16:31;100988.91;;;5.05;60.85
43071;BME280;36278;47.952;21.714;2023-02-03T09:18:56;100987.84;;;5.09;61.59
43071;BME280;36278;47.952;21.714;2023-02-03T09:21:22;100989.78;;;5.05;61.67
43071;BME280;36278;47.952;21.714;2023-02-03T09:23:48;100990.97;;;4.76;62.84
43071;BME280;36278;47.952;21.714;2023-02-03T09:26:16;100989.94;;;4.81;63.88
43071;BME280;36278;47.952;21.714;2023-02-03T09:28:41;100987.50;;;4.76;63.72
43071;BME280;36278;47.952;21.714;2023-02-03T09:31:10;100975.84;;;4.61;64.11
43071;BME280;36278;47.952;21.714;2023-02-03T09:33:37;100969.94;;;4.56;64.92
43071;BME280;36278;47.952;21.714;2023-02-03T09:36:04;100966.94;;;4.65;63.35
43071;BME280;36278;47.952;21.714;2023-02-03T09:38:31;100960.22;;;4.58;63.95
43071;BME280;36278;47.952;21.714;2023-02-03T09:41:10;100952.59;;;4.74;61.97
43071;BME280;36278;47.952;21.714;2023-02-03T09:46:21;100958.22;;;4.85;62.45
43071;BME280;36278;47.952;21.714;2023-02-03T09:49:26;100948.91;;;4.78;62.25
43071;BME280;36278;47.952;21.714;2023-02-03T09:51:48;100953.13;;;5.23;62.13
43071;BME280;36278;47.952;21.714;2023-02-03T09:54:19;100945.78;;;5.31;60.75
43071;BME280;36278;47.952;21.714;2023-02-03T09:56:48;100933.75;;;5.25;62.17
43071;BME280;36278;47.952;21.714;2023-02-03T09:59:18;100934.44;;;5.49;60.85
43071;BME280;36278;47.952;21.714;2023-02-03T10:01:54;100920.28;;;5.33;60.90
43071;BME280;36278;47.952;21.714;2023-02-03T10:07:11;100911.38;;;5.56;60.97
43071;BME280;36278;47.952;21.714;2023-02-03T10:15:32;100897.88;;;5.82;58.97
43071;BME280;36278;47.952;21.714;2023-02-03T10:18:06;100905.00;;;5.80;59.17
43071;BME280;36278;47.952;21.714;2023-02-03T10:20:57;100899.50;;;5.85;57.80
43071;BME280;36278;47.952;21.714;2023-02-03T10:23:35;100885.88;;;5.77;57.80
43071;BME280;36278;47.952;21.714;2023-02-03T10:26:09;100881.63;;;5.55;57.78
43071;BME280;36278;47.952;21.714;2023-02-03T10:28:53;100881.44;;;5.77;58.59
43071;BME280;36278;47.952;21.714;2023-02-03T10:31:22;100873.81;;;5.92;57.47
43071;BME280;36278;47.952;21.714;2023-02-03T10:33:56;100861.72;;;6.06;57.29
43071;BME280;36278;47.952;21.714;2023-02-03T10:36:35;100873.16;;;5.86;58.60
43071;BME280;36278;47.952;21.714;2023-02-03T10:41:40;100862.91;;;5.61;59.23
43071;BME280;36278;47.952;21.714;2023-02-03T10:44:06;100856.72;;;5.44;60.51
43071;BME280;36278;47.952;21.714;2023-02-03T10:46:35;100840.53;;;5.53;61.09
43071;BME280;36278;47.952;21.714;2023-02-03T10:49:02;100849.25;;;5.16;62.89
43071;BME280;36278;47.952;21.714;2023-02-03T10:54:31;100833.66;;;5.50;61.20
43071;BME280;36278;47.952;21.714;2023-02-03T10:57:10;100833.72;;;5.86;59.71
43071;BME280;36278;47.952;21.714;2023-02-03T10:59:41;100823.31;;;6.02;59.41
43071;BME280;36278;47.952;21.714;2023-02-03T11:02:18;100811.75;;;6.24;58.87
43071;BME280;36278;47.952;21.714;2023-02-03T11:04:45;100817.47;;;6.49;57.35
43071;BME280;36278;47.952;21.714;2023-02-03T11:07:23;100816.09;;;6.77;56.69
43071;BME280;36278;47.952;21.714;2023-02-03T11:09:49;100816.94;;;6.77;55.88
43071;BME280;36278;47.952;21.714;2023-02-03T11:12:18;100815.25;;;6.76;56.03
43071;BME280;36278;47.952;21.714;2023-02-03T11:14:47;100795.03;;;6.42;56.37
43071;BME280;36278;47.952;21.714;2023-02-03T11:17:35;100805.88;;;6.53;54.67
43071;BME280;36278;47.952;21.714;2023-02-03T11:20:19;100799.44;;;6.41;55.58
43071;BME280;36278;47.952;21.714;2023-02-03T11:22:47;100802.63;;;6.48;55.39
43071;BME280;36278;47.952;21.714;2023-02-03T11:25:19;100779.09;;;6.45;55.41
43071;BME280;36278;47.952;21.714;2023-02-03T11:27:45;100773.13;;;6.41;55.61
43071;BME280;36278;47.952;21.714;2023-02-03T11:32:45;100759.31;;;6.21;56.41
43071;BME280;36278;47.952;21.714;2023-02-03T11:37:42;100746.75;;;6.26;54.66
43071;BME280;36278;47.952;21.714;2023-02-03T11:42:41;100744.59;;;5.99;55.03
43071;BME280;36278;47.952;21.714;2023-02-03T11:47:51;100724.25;;;6.20;55.61
43071;BME280;36278;47.952;21.714;2023-02-03T11:52:52;100708.75;;;6.31;53.70
43071;BME280;36278;47.952;21.714;2023-02-03T12:06:11;100687.44;;;6.03;54.43
43071;BME280;36278;47.952;21.714;2023-02-03T12:31:17;100645.63;;;5.09;61.17
43071;BME280;36278;47.952;21.714;2023-02-03T12:33:53;100648.19;;;5.10;61.28
43071;BME280;36278;47.952;21.714;2023-02-03T12:36:25;100641.53;;;4.84;60.39
43071;BME280;36278;47.952;21.714;2023-02-03T12:39:04;100643.75;;;4.74;60.15
43071;BME280;36278;47.952;21.714;2023-02-03T12:41:34;100631.34;;;4.59;59.80
43071;BME280;36278;47.952;21.714;2023-02-03T12:44:38;100622.50;;;4.22;61.55
43071;BME280;36278;47.952;21.714;2023-02-03T12:47:15;100611.91;;;4.44;61.52
43071;BME280;36278;47.952;21.714;2023-02-03T12:50:04;100601.97;;;4.70;59.62
43071;BME280;36278;47.952;21.714;2023-02-03T12:52:32;100600.31;;;4.86;58.84
43071;BME280;36278;47.952;21.714;2023-02-03T12:55:27;100593.28;;;4.87;59.17
43071;BME280;36278;47.952;21.714;2023-02-03T12:58:12;100603.81;;;4.68;59.28
43071;BME280;36278;47.952;21.714;2023-02-03T13:00:46;100602.47;;;4.78;59.24
43071;BME280;36278;47.952;21.714;2023-02-03T13:08:40;100586.31;;;3.91;60.54
43071;BME280;36278;47.952;21.714;2023-02-03T13:14:01;100573.09;;;4.13;60.83
43071;BME280;36278;47.952;21.714;2023-02-03T13:16:34;100568.00;;;4.10;62.30
43071;BME280;36278;47.952;21.714;2023-02-03T13:19:05;100568.59;;;4.17;61.85
43071;BME280;36278;47.952;21.714;2023-02-03T13:21:32;100555.56;;;4.15;61.32
43071;BME280;36278;47.952;21.714;2023-02-03T13:23:57;100557.59;;;4.28;61.66
43071;BME280;36278;47.952;21.714;2023-02-03T13:31:55;100562.16;;;4.24;61.87
43071;BME280;36278;47.952;21.714;2023-02-03T13:42:52;100530.19;;;3.56;63.66
43071;BME280;36278;47.952;21.714;2023-02-03T13:47:51;100519.41;;;3.44;62.97
43071;BME280;36278;47.952;21.714;2023-02-03T13:50:25;100509.66;;;3.47;62.97
43071;BME280;36278;47.952;21.714;2023-02-03T13:53:04;100509.84;;;3.63;63.03
43071;BME280;36278;47.952;21.714;2023-02-03T13:55:39;100499.91;;;3.51;62.80
43071;BME280;36278;47.952;21.714;2023-02-03T13:58:27;100496.44;;;3.50;62.59
43071;BME280;36278;47.952;21.714;2023-02-03T14:05:50;100476.16;;;3.35;64.47
43071;BME280;36278;47.952;21.714;2023-02-03T14:16:36;100469.53;;;2.86;71.71
43071;BME280;36278;47.952;21.714;2023-02-03T14:19:03;100461.47;;;2.70;72.54
43071;BME280;36278;47.952;21.714;2023-02-03T14:21:40;100461.41;;;2.71;74.51
43071;BME280;36278;47.952;21.714;2023-02-03T14:24:10;100448.53;;;2.87;73.79
43071;BME280;36278;47.952;21.714;2023-02-03T14:26:42;100442.56;;;2.84;75.22
43071;BME280;36278;47.952;21.714;2023-02-03T14:29:22;100430.84;;;2.92;75.08
43071;BME280;36278;47.952;21.714;2023-02-03T14:31:52;100433.03;;;3.03;74.07
43071;BME280;36278;47.952;21.714;2023-02-03T14:34:42;100426.97;;;3.02;76.24
43071;BME280;36278;47.952;21.714;2023-02-03T14:37:17;100404.09;;;3.06;74.83
43071;BME280;36278;47.952;21.714;2023-02-03T14:42:42;100404.88;;;3.08;76.16
43071;BME280;36278;47.952;21.714;2023-02-03T14:45:24;100397.75;;;2.91;76.67
43071;BME280;36278;47.952;21.714;2023-02-03T14:59:15;100367.22;;;2.92;78.70
43071;BME280;36278;47.952;21.714;2023-02-03T15:06:39;100359.19;;;2.56;82.85
43071;BME280;36278;47.952;21.714;2023-02-03T15:11:56;100343.94;;;2.65;85.38
43071;BME280;36278;47.952;21.714;2023-02-03T15:14:24;100340.94;;;2.54;86.83
43071;BME280;36278;47.952;21.714;2023-02-03T15:17:09;100335.25;;;2.44;87.19
43071;BME280;36278;47.952;21.714;2023-02-03T15:19:38;100321.66;;;2.36;89.32
43071;BME280;36278;47.952;21.714;2023-02-03T15:22:25;100318.25;;;2.34;91.88
43071;BME280;36278;47.952;21.714;2023-02-03T15:25:18;100309.28;;;2.19;92.88
43071;BME280;36278;47.952;21.714;2023-02-03T15:27:43;100290.41;;;2.13;91.75
43071;BME280;36278;47.952;21.714;2023-02-03T15:30:18;100285.09;;;2.14;95.02
43071;BME280;36278;47.952;21.714;2023-02-03T15:32:59;100279.44;;;2.25;93.14